sensor_id;sensor_type;location;lat;lon;timestamp;P1;durP1;ratioP1;P2;durP2;ratioP2
27744;SDS011;61387;48.112;8.616;2023-04-03T00:01:35;10.47;;;6.37;;
27744;SDS011;61387;48.112;8.616;2023-04-03T00:04:03;11.40;;;6.33;;
27744;SDS011;61387;48.112;8.616;2023-04-03T00:06:29;10.60;;;6.47;;
27744;SDS011;61387;48.112;8.616;2023-04-03T00:08:55;10.30;;;6.60;;
27744;SDS011;61387;48.112;8.616;2023-04-03T00:11:21;10.87;;;6.80;;
27744;SDS011;61387;48.112;8.616;2023-04-03T00:13:47;9.10;;;6.33;;
27744;SDS011;61387;48.112;8.616;2023-04-03T00:16:13;9.37;;;5.73;;
27744;SDS011;61387;48.112;8.616;2023-04-03T00:18:39;9.93;;;5.90;;
27744;SDS011;61387;48.112;8.616;2023-04-03T00:21:05;11.20;;;6.17;;
27744;SDS011;61387;48.112;8.616;2023-04-03T00:23:31;12.00;;;6.07;;
27744;SDS011;61387;48.112;8.616;2023-04-03T00:25:57;9.20;;;5.67;;
27744;SDS011;61387;48.112;8.616;2023-04-03T00:28:23;11.23;;;5.83;;
27744;SDS011;61387;48.112;8.616;2023-04-03T00:30:49;9.13;;;6.23;;
27744;SDS011;61387;48.112;8.616;2023-04-03T00:33:15;10.97;;;6.80;;
27744;SDS011;61387;48.112;8.616;2023-04-03T00:35:42;10.97;;;6.63;;
27744;SDS011;61387;48.112;8.616;2023-04-03T00:38:08;10.03;;;6.50;;
27744;SDS011;61387;48.112;8.616;2023-04-03T00:40:35;8.00;;;5.63;;
27744;SDS011;61387;48.112;8.616;2023-04-03T00:43:04;10.30;;;5.90;;
27744;SDS011;61387;48.112;8.616;2023-04-03T00:45:39;10.57;;;6.60;;
27744;SDS011;61387;48.112;8.616;2023-04-03T00:48:11;11.10;;;6.57;;
27744;SDS011;61387;48.112;8.616;2023-04-03T00:50:42;9.57;;;6.50;;
27744;SDS011;61387;48.112;8.616;2023-04-03T00:53:10;12.50;;;7.00;;
27744;SDS011;61387;48.112;8.616;2023-04-03T00:55:39;9.43;;;6.73;;
27744;SDS011;61387;48.112;8.616;2023-04-03T00:58:06;9.60;;;6.40;;
27744;SDS011;61387;48.112;8.616;2023-04-03T01:00:32;12.03;;;6.93;;
27744;SDS011;61387;48.112;8.616;2023-04-03T01:03:00;11.53;;;7.27;;
27744;SDS011;61387;48.112;8.616;2023-04-03T01:05:26;10.88;;;6.93;;
27744;SDS011;61387;48.112;8.616;2023-04-03T01:07:52;12.23;;;7.40;;
27744;SDS011;61387;48.112;8.616;2023-04-03T01:10:18;9.97;;;6.23;;
27744;SDS011;61387;48.112;8.616;2023-04-03T01:12:46;11.57;;;7.07;;
27744;SDS011;61387;48.112;8.616;2023-04-03T01:15:22;11.60;;;6.60;;
27744;SDS011;61387;48.112;8.616;2023-04-03T01:17:50;13.37;;;7.43;;
27744;SDS011;61387;48.112;8.616;2023-04-03T01:25:39;13.47;;;7.00;;
27744;SDS011;61387;48.112;8.616;2023-04-03T01:28:08;12.47;;;7.53;;
27744;SDS011;61387;48.112;8.616;2023-04-03T01:30:37;13.10;;;8.27;;
27744;SDS011;61387;48.112;8.616;2023-04-03T01:33:10;11.40;;;7.77;;
27744;SDS011;61387;48.112;8.616;2023-04-03T01:35:35;11.10;;;8.00;;
27744;SDS011;61387;48.112;8.616;2023-04-03T01:38:02;11.57;;;7.10;;
27744;SDS011;61387;48.112;8.616;2023-04-03T01:40:28;12.97;;;7.83;;
27744;SDS011;61387;48.112;8.616;2023-04-03T01:42:54;12.45;;;7.47;;
27744;SDS011;61387;48.112;8.616;2023-04-03T01:45:20;12.77;;;8.27;;
27744;SDS011;61387;48.112;8.616;2023-04-03T01:47:46;11.60;;;7.80;;
27744;SDS011;61387;48.112;8.616;2023-04-03T01:50:12;12.57;;;8.43;;
27744;SDS011;61387;48.112;8.616;2023-04-03T01:52:38;13.33;;;8.70;;
27744;SDS011;61387;48.112;8.616;2023-04-03T01:55:04;13.47;;;8.17;;
27744;SDS011;61387;48.112;8.616;2023-04-03T01:57:29;12.17;;;8.00;;
27744;SDS011;61387;48.112;8.616;2023-04-03T01:59:55;13.67;;;8.97;;
27744;SDS011;61387;48.112;8.616;2023-04-03T02:02:21;12.83;;;8.47;;
27744;SDS011;61387;48.112;8.616;2023-04-03T02:04:47;13.83;;;8.27;;
27744;SDS011;61387;48.112;8.616;2023-04-03T02:07:13;15.07;;;9.40;;
27744;SDS011;61387;48.112;8.616;2023-04-03T02:09:39;12.10;;;8.23;;
27744;SDS011;61387;48.112;8.616;2023-04-03T02:12:05;13.37;;;8.23;;
27744;SDS011;61387;48.112;8.616;2023-04-03T02:14:31;13.20;;;8.57;;
27744;SDS011;61387;48.112;8.616;2023-04-03T02:16:57;13.53;;;8.83;;
27744;SDS011;61387;48.112;8.616;2023-04-03T02:19:22;15.15;;;9.45;;
27744;SDS011;61387;48.112;8.616;2023-04-03T02:21:48;15.23;;;9.13;;
27744;SDS011;61387;48.112;8.616;2023-04-03T02:24:14;15.65;;;9.63;;
27744;SDS011;61387;48.112;8.616;2023-04-03T02:26:40;15.57;;;8.60;;
27744;SDS011;61387;48.112;8.616;2023-04-03T02:29:05;13.43;;;8.53;;
27744;SDS011;61387;48.112;8.616;2023-04-03T02:31:31;14.40;;;9.13;;
27744;SDS011;61387;48.112;8.616;2023-04-03T02:33:57;13.17;;;8.30;;
27744;SDS011;61387;48.112;8.616;2023-04-03T02:36:22;13.47;;;8.27;;
27744;SDS011;61387;48.112;8.616;2023-04-03T02:38:48;14.03;;;8.77;;
27744;SDS011;61387;48.112;8.616;2023-04-03T02:41:14;13.30;;;8.97;;
27744;SDS011;61387;48.112;8.616;2023-04-03T02:43:40;12.43;;;8.17;;
27744;SDS011;61387;48.112;8.616;2023-04-03T02:46:07;16.30;;;9.20;;
27744;SDS011;61387;48.112;8.616;2023-04-03T02:48:33;13.47;;;8.73;;
27744;SDS011;61387;48.112;8.616;2023-04-03T02:50:59;12.57;;;8.40;;
27744;SDS011;61387;48.112;8.616;2023-04-03T02:53:26;13.43;;;8.93;;
27744;SDS011;61387;48.112;8.616;2023-04-03T02:55:51;12.23;;;8.20;;
27744;SDS011;61387;48.112;8.616;2023-04-03T02:58:17;12.57;;;8.80;;
27744;SDS011;61387;48.112;8.616;2023-04-03T03:00:43;13.83;;;8.83;;
27744;SDS011;61387;48.112;8.616;2023-04-03T03:03:09;15.43;;;8.50;;
27744;SDS011;61387;48.112;8.616;2023-04-03T03:05:35;15.20;;;8.10;;
27744;SDS011;61387;48.112;8.616;2023-04-03T03:08:01;10.70;;;7.17;;
27744;SDS011;61387;48.112;8.616;2023-04-03T03:10:27;14.50;;;8.53;;
27744;SDS011;61387;48.112;8.616;2023-04-03T03:12:53;13.43;;;8.40;;
27744;SDS011;61387;48.112;8.616;2023-04-03T03:15:19;12.13;;;8.90;;
27744;SDS011;61387;48.112;8.616;2023-04-03T03:17:45;13.83;;;8.57;;
27744;SDS011;61387;48.112;8.616;2023-04-03T03:20:11;13.00;;;8.37;;
27744;SDS011;61387;48.112;8.616;2023-04-03T03:22:39;14.03;;;8.53;;
27744;SDS011;61387;48.112;8.616;2023-04-03T03:25:05;12.80;;;8.60;;
27744;SDS011;61387;48.112;8.616;2023-04-03T03:27:31;13.07;;;7.87;;
27744;SDS011;61387;48.112;8.616;2023-04-03T03:29:57;13.97;;;8.43;;
27744;SDS011;61387;48.112;8.616;2023-04-03T03:32:23;14.47;;;8.80;;
27744;SDS011;61387;48.112;8.616;2023-04-03T03:34:48;12.10;;;8.23;;
27744;SDS011;61387;48.112;8.616;2023-04-03T03:37:14;12.63;;;8.73;;
27744;SDS011;61387;48.112;8.616;2023-04-03T03:39:40;13.20;;;8.43;;
27744;SDS011;61387;48.112;8.616;2023-04-03T03:42:06;15.50;;;9.17;;
27744;SDS011;61387;48.112;8.616;2023-04-03T03:44:32;13.40;;;8.33;;
27744;SDS011;61387;48.112;8.616;2023-04-03T03:46:58;14.73;;;9.80;;
27744;SDS011;61387;48.112;8.616;2023-04-03T03:49:23;15.13;;;10.27;;
27744;SDS011;61387;48.112;8.616;2023-04-03T03:51:49;15.47;;;10.03;;
27744;SDS011;61387;48.112;8.616;2023-04-03T03:54:15;14.93;;;10.10;;
27744;SDS011;61387;48.112;8.616;2023-04-03T03:56:41;16.60;;;11.10;;
27744;SDS011;61387;48.112;8.616;2023-04-03T03:59:07;19.90;;;11.63;;
27744;SDS011;61387;48.112;8.616;2023-04-03T04:01:33;20.33;;;12.00;;
27744;SDS011;61387;48.112;8.616;2023-04-03T04:03:59;20.23;;;13.63;;
27744;SDS011;61387;48.112;8.616;2023-04-03T04:06:25;20.43;;;12.87;;
27744;SDS011;61387;48.112;8.616;2023-04-03T04:08:51;21.30;;;13.80;;
27744;SDS011;61387;48.112;8.616;2023-04-03T04:11:17;21.93;;;13.97;;
27744;SDS011;61387;48.112;8.616;2023-04-03T04:13:42;21.85;;;14.13;;
27744;SDS011;61387;48.112;8.616;2023-04-03T04:16:08;21.43;;;13.97;;
27744;SDS011;61387;48.112;8.616;2023-04-03T04:18:34;23.23;;;14.67;;
27744;SDS011;61387;48.112;8.616;2023-04-03T04:21:00;20.80;;;13.80;;
27744;SDS011;61387;48.112;8.616;2023-04-03T04:23:26;18.80;;;12.63;;
27744;SDS011;61387;48.112;8.616;2023-04-03T04:25:51;20.57;;;13.93;;
27744;SDS011;61387;48.112;8.616;2023-04-03T04:28:17;23.00;;;14.27;;
27744;SDS011;61387;48.112;8.616;2023-04-03T04:30:44;19.40;;;13.00;;
27744;SDS011;61387;48.112;8.616;2023-04-03T04:33:10;21.67;;;13.23;;
27744;SDS011;61387;48.112;8.616;2023-04-03T04:35:35;19.37;;;11.50;;
27744;SDS011;61387;48.112;8.616;2023-04-03T04:38:01;18.13;;;11.63;;
27744;SDS011;61387;48.112;8.616;2023-04-03T04:40:27;18.77;;;11.43;;
27744;SDS011;61387;48.112;8.616;2023-04-03T04:42:53;17.97;;;11.53;;
27744;SDS011;61387;48.112;8.616;2023-04-03T04:45:19;22.13;;;12.73;;
27744;SDS011;61387;48.112;8.616;2023-04-03T04:47:45;20.10;;;13.00;;
27744;SDS011;61387;48.112;8.616;2023-04-03T04:50:12;20.63;;;13.20;;
27744;SDS011;61387;48.112;8.616;2023-04-03T04:52:37;17.87;;;11.93;;
27744;SDS011;61387;48.112;8.616;2023-04-03T04:55:04;20.87;;;12.73;;
27744;SDS011;61387;48.112;8.616;2023-04-03T04:57:30;17.20;;;11.20;;
27744;SDS011;61387;48.112;8.616;2023-04-03T04:59:55;17.27;;;10.13;;
27744;SDS011;61387;48.112;8.616;2023-04-03T05:02:21;16.17;;;10.13;;
27744;SDS011;61387;48.112;8.616;2023-04-03T05:04:46;15.17;;;10.47;;
27744;SDS011;61387;48.112;8.616;2023-04-03T05:07:15;20.43;;;10.93;;
27744;SDS011;61387;48.112;8.616;2023-04-03T05:09:40;18.10;;;10.60;;
27744;SDS011;61387;48.112;8.616;2023-04-03T05:12:07;18.73;;;11.60;;
27744;SDS011;61387;48.112;8.616;2023-04-03T05:14:33;16.63;;;10.70;;
27744;SDS011;61387;48.112;8.616;2023-04-03T05:16:59;17.37;;;10.63;;
27744;SDS011;61387;48.112;8.616;2023-04-03T05:19:25;17.57;;;10.07;;
27744;SDS011;61387;48.112;8.616;2023-04-03T05:21:50;17.27;;;10.50;;
27744;SDS011;61387;48.112;8.616;2023-04-03T05:24:16;16.47;;;10.43;;
27744;SDS011;61387;48.112;8.616;2023-04-03T05:26:42;15.93;;;9.70;;
27744;SDS011;61387;48.112;8.616;2023-04-03T05:29:08;18.43;;;11.10;;
27744;SDS011;61387;48.112;8.616;2023-04-03T05:31:34;16.37;;;10.20;;
27744;SDS011;61387;48.112;8.616;2023-04-03T05:34:00;16.73;;;9.87;;
27744;SDS011;61387;48.112;8.616;2023-04-03T05:36:25;13.97;;;9.23;;
27744;SDS011;61387;48.112;8.616;2023-04-03T05:38:52;16.63;;;10.17;;
27744;SDS011;61387;48.112;8.616;2023-04-03T05:41:18;13.80;;;9.03;;
27744;SDS011;61387;48.112;8.616;2023-04-03T05:43:45;13.83;;;9.90;;
27744;SDS011;61387;48.112;8.616;2023-04-03T05:46:12;15.77;;;10.17;;
27744;SDS011;61387;48.112;8.616;2023-04-03T05:48:40;18.23;;;10.90;;
27744;SDS011;61387;48.112;8.616;2023-04-03T05:51:06;17.97;;;10.87;;
27744;SDS011;61387;48.112;8.616;2023-04-03T05:53:33;16.10;;;9.60;;
27744;SDS011;61387;48.112;8.616;2023-04-03T05:56:02;14.77;;;9.57;;
27744;SDS011;61387;48.112;8.616;2023-04-03T05:58:28;16.90;;;10.83;;
27744;SDS011;61387;48.112;8.616;2023-04-03T06:00:54;16.77;;;10.17;;
27744;SDS011;61387;48.112;8.616;2023-04-03T06:03:20;13.93;;;9.70;;
27744;SDS011;61387;48.112;8.616;2023-04-03T06:05:46;17.77;;;10.30;;
27744;SDS011;61387;48.112;8.616;2023-04-03T06:08:12;18.10;;;10.80;;
27744;SDS011;61387;48.112;8.616;2023-04-03T06:10:37;15.50;;;10.38;;
27744;SDS011;61387;48.112;8.616;2023-04-03T06:13:03;17.00;;;10.93;;
27744;SDS011;61387;48.112;8.616;2023-04-03T06:15:29;18.73;;;11.30;;
27744;SDS011;61387;48.112;8.616;2023-04-03T06:17:55;17.43;;;10.17;;
27744;SDS011;61387;48.112;8.616;2023-04-03T06:20:21;12.57;;;8.70;;
27744;SDS011;61387;48.112;8.616;2023-04-03T06:22:47;13.20;;;7.57;;
27744;SDS011;61387;48.112;8.616;2023-04-03T06:25:13;10.03;;;7.17;;
27744;SDS011;61387;48.112;8.616;2023-04-03T06:27:39;8.67;;;6.20;;
27744;SDS011;61387;48.112;8.616;2023-04-03T06:30:05;13.57;;;7.40;;
27744;SDS011;61387;48.112;8.616;2023-04-03T06:32:32;9.37;;;6.40;;
27744;SDS011;61387;48.112;8.616;2023-04-03T06:34:57;9.30;;;6.43;;
27744;SDS011;61387;48.112;8.616;2023-04-03T06:37:23;10.60;;;6.27;;
27744;SDS011;61387;48.112;8.616;2023-04-03T06:39:51;9.30;;;6.00;;
27744;SDS011;61387;48.112;8.616;2023-04-03T06:42:16;10.27;;;6.20;;
27744;SDS011;61387;48.112;8.616;2023-04-03T06:44:42;10.70;;;6.43;;
27744;SDS011;61387;48.112;8.616;2023-04-03T06:47:18;8.67;;;5.80;;
27744;SDS011;61387;48.112;8.616;2023-04-03T06:49:44;11.73;;;6.40;;
27744;SDS011;61387;48.112;8.616;2023-04-03T06:52:10;10.30;;;6.00;;
27744;SDS011;61387;48.112;8.616;2023-04-03T06:54:37;7.20;;;5.33;;
27744;SDS011;61387;48.112;8.616;2023-04-03T06:57:03;9.97;;;5.87;;
27744;SDS011;61387;48.112;8.616;2023-04-03T06:59:29;7.60;;;5.43;;
27744;SDS011;61387;48.112;8.616;2023-04-03T07:01:55;7.67;;;4.60;;
27744;SDS011;61387;48.112;8.616;2023-04-03T07:04:20;8.37;;;5.17;;
27744;SDS011;61387;48.112;8.616;2023-04-03T07:06:46;7.30;;;4.80;;
27744;SDS011;61387;48.112;8.616;2023-04-03T07:09:15;8.13;;;4.93;;
27744;SDS011;61387;48.112;8.616;2023-04-03T07:11:41;7.13;;;4.93;;
27744;SDS011;61387;48.112;8.616;2023-04-03T07:14:07;7.27;;;4.63;;
27744;SDS011;61387;48.112;8.616;2023-04-03T07:16:33;7.00;;;4.50;;
27744;SDS011;61387;48.112;8.616;2023-04-03T07:19:00;6.73;;;4.20;;
27744;SDS011;61387;48.112;8.616;2023-04-03T07:21:26;10.40;;;4.63;;
27744;SDS011;61387;48.112;8.616;2023-04-03T07:23:52;8.03;;;4.40;;
27744;SDS011;61387;48.112;8.616;2023-04-03T07:26:18;6.50;;;4.13;;
27744;SDS011;61387;48.112;8.616;2023-04-03T07:28:45;4.43;;;2.93;;
27744;SDS011;61387;48.112;8.616;2023-04-03T07:31:13;5.87;;;3.60;;
27744;SDS011;61387;48.112;8.616;2023-04-03T07:33:40;5.40;;;3.30;;
27744;SDS011;61387;48.112;8.616;2023-04-03T07:36:07;7.87;;;3.70;;
27744;SDS011;61387;48.112;8.616;2023-04-03T07:38:36;5.27;;;2.83;;
27744;SDS011;61387;48.112;8.616;2023-04-03T07:41:02;4.50;;;3.00;;
27744;SDS011;61387;48.112;8.616;2023-04-03T07:43:28;6.10;;;3.37;;
27744;SDS011;61387;48.112;8.616;2023-04-03T07:45:54;4.40;;;2.97;;
27744;SDS011;61387;48.112;8.616;2023-04-03T07:48:21;6.23;;;3.20;;
27744;SDS011;61387;48.112;8.616;2023-04-03T07:50:48;5.23;;;2.80;;
27744;SDS011;61387;48.112;8.616;2023-04-03T07:53:14;4.60;;;2.70;;
27744;SDS011;61387;48.112;8.616;2023-04-03T07:55:40;7.23;;;3.03;;
27744;SDS011;61387;48.112;8.616;2023-04-03T07:58:10;4.77;;;2.63;;
27744;SDS011;61387;48.112;8.616;2023-04-03T08:00:37;5.33;;;2.87;;
27744;SDS011;61387;48.112;8.616;2023-04-03T08:03:03;7.87;;;3.03;;
27744;SDS011;61387;48.112;8.616;2023-04-03T08:05:29;5.10;;;3.10;;
27744;SDS011;61387;48.112;8.616;2023-04-03T08:07:55;5.27;;;2.97;;
27744;SDS011;61387;48.112;8.616;2023-04-03T08:10:20;4.57;;;2.73;;
27744;SDS011;61387;48.112;8.616;2023-04-03T08:12:46;6.28;;;3.47;;
27744;SDS011;61387;48.112;8.616;2023-04-03T08:15:12;5.03;;;3.00;;
27744;SDS011;61387;48.112;8.616;2023-04-03T08:17:38;5.67;;;3.37;;
27744;SDS011;61387;48.112;8.616;2023-04-03T08:20:04;8.93;;;3.45;;
27744;SDS011;61387;48.112;8.616;2023-04-03T08:22:31;5.53;;;3.53;;
27744;SDS011;61387;48.112;8.616;2023-04-03T08:24:57;8.67;;;4.20;;
27744;SDS011;61387;48.112;8.616;2023-04-03T08:27:23;5.13;;;3.70;;
27744;SDS011;61387;48.112;8.616;2023-04-03T08:29:49;4.43;;;3.03;;
27744;SDS011;61387;48.112;8.616;2023-04-03T08:32:16;15.00;;;3.63;;
27744;SDS011;61387;48.112;8.616;2023-04-03T08:34:42;6.60;;;3.00;;
27744;SDS011;61387;48.112;8.616;2023-04-03T08:37:09;4.80;;;3.10;;
27744;SDS011;61387;48.112;8.616;2023-04-03T08:39:35;4.93;;;3.07;;
27744;SDS011;61387;48.112;8.616;2023-04-03T08:42:02;5.07;;;3.10;;
27744;SDS011;61387;48.112;8.616;2023-04-03T08:44:39;5.37;;;2.90;;
27744;SDS011;61387;48.112;8.616;2023-04-03T08:49:59;4.43;;;2.43;;
27744;SDS011;61387;48.112;8.616;2023-04-03T08:55:28;7.57;;;3.63;;
27744;SDS011;61387;48.112;8.616;2023-04-03T08:57:59;7.40;;;3.03;;
27744;SDS011;61387;48.112;8.616;2023-04-03T09:00:51;3.73;;;2.60;;
27744;SDS011;61387;48.112;8.616;2023-04-03T09:03:19;4.00;;;2.77;;
27744;SDS011;61387;48.112;8.616;2023-04-03T09:05:53;4.90;;;3.27;;
27744;SDS011;61387;48.112;8.616;2023-04-03T09:08:31;4.83;;;3.13;;
27744;SDS011;61387;48.112;8.616;2023-04-03T09:11:13;4.90;;;2.93;;
27744;SDS011;61387;48.112;8.616;2023-04-03T09:21:40;7.60;;;3.50;;
27744;SDS011;61387;48.112;8.616;2023-04-03T09:24:07;6.67;;;4.77;;
27744;SDS011;61387;48.112;8.616;2023-04-03T09:29:21;7.67;;;5.00;;
27744;SDS011;61387;48.112;8.616;2023-04-03T09:32:01;7.27;;;4.97;;
27744;SDS011;61387;48.112;8.616;2023-04-03T09:34:42;8.50;;;4.40;;
27744;SDS011;61387;48.112;8.616;2023-04-03T09:37:09;7.93;;;4.20;;
27744;SDS011;61387;48.112;8.616;2023-04-03T09:39:53;6.90;;;4.23;;
27744;SDS011;61387;48.112;8.616;2023-04-03T09:42:21;7.37;;;3.50;;
27744;SDS011;61387;48.112;8.616;2023-04-03T09:44:58;4.97;;;3.20;;
27744;SDS011;61387;48.112;8.616;2023-04-03T09:47:29;7.47;;;3.23;;
27744;SDS011;61387;48.112;8.616;2023-04-03T09:52:57;4.87;;;2.60;;
27744;SDS011;61387;48.112;8.616;2023-04-03T09:55:23;5.23;;;3.43;;
27744;SDS011;61387;48.112;8.616;2023-04-03T09:57:55;4.93;;;3.43;;
27744;SDS011;61387;48.112;8.616;2023-04-03T10:00:25;7.67;;;3.83;;
27744;SDS011;61387;48.112;8.616;2023-04-03T10:02:56;4.60;;;3.13;;
27744;SDS011;61387;48.112;8.616;2023-04-03T10:05:27;7.07;;;3.67;;
27744;SDS011;61387;48.112;8.616;2023-04-03T10:08:06;6.30;;;3.13;;
27744;SDS011;61387;48.112;8.616;2023-04-03T10:10:48;5.30;;;3.17;;
27744;SDS011;61387;48.112;8.616;2023-04-03T10:13:29;6.10;;;2.80;;
27744;SDS011;61387;48.112;8.616;2023-04-03T10:15:56;4.67;;;3.33;;
27744;SDS011;61387;48.112;8.616;2023-04-03T10:21:10;5.97;;;3.70;;
27744;SDS011;61387;48.112;8.616;2023-04-03T10:23:45;5.17;;;3.00;;
27744;SDS011;61387;48.112;8.616;2023-04-03T10:26:29;4.90;;;3.10;;
27744;SDS011;61387;48.112;8.616;2023-04-03T10:29:15;7.47;;;3.77;;
27744;SDS011;61387;48.112;8.616;2023-04-03T10:32:15;4.87;;;3.40;;
27744;SDS011;61387;48.112;8.616;2023-04-03T10:34:45;5.67;;;2.83;;
27744;SDS011;61387;48.112;8.616;2023-04-03T10:37:20;5.30;;;3.20;;
27744;SDS011;61387;48.112;8.616;2023-04-03T10:42:33;5.83;;;3.70;;
27744;SDS011;61387;48.112;8.616;2023-04-03T10:45:24;6.20;;;4.00;;
27744;SDS011;61387;48.112;8.616;2023-04-03T10:50:59;6.20;;;3.77;;
27744;SDS011;61387;48.112;8.616;2023-04-03T10:56:53;6.67;;;4.03;;
27744;SDS011;61387;48.112;8.616;2023-04-03T10:59:38;5.60;;;3.77;;
27744;SDS011;61387;48.112;8.616;2023-04-03T11:02:07;6.30;;;3.70;;
27744;SDS011;61387;48.112;8.616;2023-04-03T11:04:44;6.03;;;3.40;;
27744;SDS011;61387;48.112;8.616;2023-04-03T11:07:16;4.83;;;3.67;;
27744;SDS011;61387;48.112;8.616;2023-04-03T11:09:48;6.43;;;3.67;;
27744;SDS011;61387;48.112;8.616;2023-04-03T11:12:18;7.00;;;4.20;;
27744;SDS011;61387;48.112;8.616;2023-04-03T11:14:58;5.47;;;3.57;;
27744;SDS011;61387;48.112;8.616;2023-04-03T11:17:28;6.07;;;3.40;;
27744;SDS011;61387;48.112;8.616;2023-04-03T11:20:06;6.60;;;3.47;;
27744;SDS011;61387;48.112;8.616;2023-04-03T11:22:36;6.13;;;3.40;;
27744;SDS011;61387;48.112;8.616;2023-04-03T11:27:40;5.10;;;3.40;;
27744;SDS011;61387;48.112;8.616;2023-04-03T11:33:10;6.90;;;3.63;;
27744;SDS011;61387;48.112;8.616;2023-04-03T11:35:47;7.10;;;3.43;;
27744;SDS011;61387;48.112;8.616;2023-04-03T11:38:21;6.27;;;3.37;;
27744;SDS011;61387;48.112;8.616;2023-04-03T11:40:51;6.13;;;3.97;;
27744;SDS011;61387;48.112;8.616;2023-04-03T11:43:24;6.90;;;3.63;;
27744;SDS011;61387;48.112;8.616;2023-04-03T11:46:01;7.73;;;3.33;;
27744;SDS011;61387;48.112;8.616;2023-04-03T11:51:43;5.50;;;3.50;;
27744;SDS011;61387;48.112;8.616;2023-04-03T11:53:52;7.17;;;3.60;;
27744;SDS011;61387;48.112;8.616;2023-04-03T11:59:14;6.83;;;3.57;;
27744;SDS011;61387;48.112;8.616;2023-04-03T12:01:48;4.80;;;3.10;;
27744;SDS011;61387;48.112;8.616;2023-04-03T12:04:19;6.30;;;3.77;;
27744;SDS011;61387;48.112;8.616;2023-04-03T12:09:25;7.27;;;3.50;;
27744;SDS011;61387;48.112;8.616;2023-04-03T12:12:29;7.20;;;3.60;;
27744;SDS011;61387;48.112;8.616;2023-04-03T12:17:51;4.97;;;3.20;;
27744;SDS011;61387;48.112;8.616;2023-04-03T12:23:23;4.70;;;2.93;;
27744;SDS011;61387;48.112;8.616;2023-04-03T12:25:49;4.23;;;3.20;;
27744;SDS011;61387;48.112;8.616;2023-04-03T12:28:16;6.77;;;3.47;;
27744;SDS011;61387;48.112;8.616;2023-04-03T12:30:45;5.20;;;3.30;;
27744;SDS011;61387;48.112;8.616;2023-04-03T12:33:18;5.77;;;3.17;;
27744;SDS011;61387;48.112;8.616;2023-04-03T12:35:56;4.70;;;3.00;;
27744;SDS011;61387;48.112;8.616;2023-04-03T12:41:16;6.87;;;3.70;;
27744;SDS011;61387;48.112;8.616;2023-04-03T12:46:45;4.90;;;3.23;;
27744;SDS011;61387;48.112;8.616;2023-04-03T12:49:18;5.47;;;2.97;;
27744;SDS011;61387;48.112;8.616;2023-04-03T12:51:53;5.77;;;2.97;;
27744;SDS011;61387;48.112;8.616;2023-04-03T12:54:21;5.40;;;3.30;;
27744;SDS011;61387;48.112;8.616;2023-04-03T12:57:11;10.17;;;3.40;;
27744;SDS011;61387;48.112;8.616;2023-04-03T12:59:41;5.20;;;3.33;;
27744;SDS011;61387;48.112;8.616;2023-04-03T13:02:43;5.53;;;3.57;;
27744;SDS011;61387;48.112;8.616;2023-04-03T13:05:09;5.23;;;3.50;;
27744;SDS011;61387;48.112;8.616;2023-04-03T13:07:41;7.13;;;3.90;;
27744;SDS011;61387;48.112;8.616;2023-04-03T13:12:47;5.33;;;3.40;;
27744;SDS011;61387;48.112;8.616;2023-04-03T13:15:23;7.53;;;3.70;;
27744;SDS011;61387;48.112;8.616;2023-04-03T13:17:50;6.60;;;3.40;;
27744;SDS011;61387;48.112;8.616;2023-04-03T13:20:27;5.20;;;3.00;;
27744;SDS011;61387;48.112;8.616;2023-04-03T13:25:25;5.10;;;3.03;;
27744;SDS011;61387;48.112;8.616;2023-04-03T13:27:54;7.23;;;3.50;;
27744;SDS011;61387;48.112;8.616;2023-04-03T13:32:46;4.90;;;2.93;;
27744;SDS011;61387;48.112;8.616;2023-04-03T13:37:57;6.00;;;2.93;;
27744;SDS011;61387;48.112;8.616;2023-04-03T13:40:25;7.47;;;2.97;;
27744;SDS011;61387;48.112;8.616;2023-04-03T13:43:01;6.03;;;3.60;;
27744;SDS011;61387;48.112;8.616;2023-04-03T13:45:30;4.83;;;2.77;;
27744;SDS011;61387;48.112;8.616;2023-04-03T13:48:10;6.17;;;2.90;;
27744;SDS011;61387;48.112;8.616;2023-04-03T13:50:54;6.10;;;3.60;;
27744;SDS011;61387;48.112;8.616;2023-04-03T13:53:26;5.20;;;3.17;;
27744;SDS011;61387;48.112;8.616;2023-04-03T13:58:23;5.00;;;3.00;;
27744;SDS011;61387;48.112;8.616;2023-04-03T14:00:53;3.83;;;2.60;;
27744;SDS011;61387;48.112;8.616;2023-04-03T14:03:23;5.03;;;2.80;;
27744;SDS011;61387;48.112;8.616;2023-04-03T14:05:53;4.37;;;2.70;;
27744;SDS011;61387;48.112;8.616;2023-04-03T14:08:18;4.03;;;2.60;;
27744;SDS011;61387;48.112;8.616;2023-04-03T14:10:45;4.33;;;2.83;;
27744;SDS011;61387;48.112;8.616;2023-04-03T14:13:15;5.43;;;2.83;;
27744;SDS011;61387;48.112;8.616;2023-04-03T14:15:43;5.57;;;2.73;;
27744;SDS011;61387;48.112;8.616;2023-04-03T14:18:13;5.40;;;3.00;;
27744;SDS011;61387;48.112;8.616;2023-04-03T14:20:40;3.30;;;2.47;;
27744;SDS011;61387;48.112;8.616;2023-04-03T14:23:06;5.57;;;2.63;;
27744;SDS011;61387;48.112;8.616;2023-04-03T14:25:34;4.37;;;2.67;;
27744;SDS011;61387;48.112;8.616;2023-04-03T14:28:00;6.20;;;2.67;;
27744;SDS011;61387;48.112;8.616;2023-04-03T14:30:28;4.53;;;2.60;;
27744;SDS011;61387;48.112;8.616;2023-04-03T14:32:56;5.67;;;2.90;;
27744;SDS011;61387;48.112;8.616;2023-04-03T14:35:22;8.87;;;2.70;;
27744;SDS011;61387;48.112;8.616;2023-04-03T14:37:50;4.70;;;2.87;;
27744;SDS011;61387;48.112;8.616;2023-04-03T14:40:19;4.83;;;2.37;;
27744;SDS011;61387;48.112;8.616;2023-04-03T14:42:50;5.90;;;2.87;;
27744;SDS011;61387;48.112;8.616;2023-04-03T14:45:16;4.00;;;2.47;;
27744;SDS011;61387;48.112;8.616;2023-04-03T14:47:47;6.47;;;3.10;;
27744;SDS011;61387;48.112;8.616;2023-04-03T14:50:18;5.33;;;2.90;;
27744;SDS011;61387;48.112;8.616;2023-04-03T14:52:50;4.97;;;2.50;;
27744;SDS011;61387;48.112;8.616;2023-04-03T14:55:17;5.40;;;2.63;;
27744;SDS011;61387;48.112;8.616;2023-04-03T14:57:45;4.30;;;2.60;;
27744;SDS011;61387;48.112;8.616;2023-04-03T15:00:15;5.70;;;2.80;;
27744;SDS011;61387;48.112;8.616;2023-04-03T15:02:43;3.37;;;2.43;;
27744;SDS011;61387;48.112;8.616;2023-04-03T15:05:09;6.63;;;3.00;;
27744;SDS011;61387;48.112;8.616;2023-04-03T15:07:37;3.83;;;2.30;;
27744;SDS011;61387;48.112;8.616;2023-04-03T15:10:21;5.27;;;2.70;;
27744;SDS011;61387;48.112;8.616;2023-04-03T15:12:49;3.40;;;2.27;;
27744;SDS011;61387;48.112;8.616;2023-04-03T15:15:17;5.07;;;2.60;;
27744;SDS011;61387;48.112;8.616;2023-04-03T15:17:44;4.07;;;2.50;;
27744;SDS011;61387;48.112;8.616;2023-04-03T15:20:16;3.57;;;2.63;;
27744;SDS011;61387;48.112;8.616;2023-04-03T15:22:44;4.97;;;2.83;;
27744;SDS011;61387;48.112;8.616;2023-04-03T15:25:11;4.93;;;2.47;;
27744;SDS011;61387;48.112;8.616;2023-04-03T15:27:37;5.80;;;2.50;;
27744;SDS011;61387;48.112;8.616;2023-04-03T15:30:05;5.57;;;2.63;;
27744;SDS011;61387;48.112;8.616;2023-04-03T15:32:32;9.23;;;2.73;;
27744;SDS011;61387;48.112;8.616;2023-04-03T15:34:58;7.43;;;2.33;;
27744;SDS011;61387;48.112;8.616;2023-04-03T15:37:24;3.80;;;2.50;;
27744;SDS011;61387;48.112;8.616;2023-04-03T15:39:50;4.60;;;2.37;;
27744;SDS011;61387;48.112;8.616;2023-04-03T15:42:15;4.33;;;2.50;;
27744;SDS011;61387;48.112;8.616;2023-04-03T15:44:41;4.10;;;2.33;;
27744;SDS011;61387;48.112;8.616;2023-04-03T15:47:07;4.07;;;2.50;;
27744;SDS011;61387;48.112;8.616;2023-04-03T15:49:32;4.67;;;2.30;;
27744;SDS011;61387;48.112;8.616;2023-04-03T15:51:59;4.67;;;2.67;;
27744;SDS011;61387;48.112;8.616;2023-04-03T15:54:25;6.20;;;2.57;;
27744;SDS011;61387;48.112;8.616;2023-04-03T15:56:51;6.93;;;2.73;;
27744;SDS011;61387;48.112;8.616;2023-04-03T15:59:17;5.00;;;2.27;;
27744;SDS011;61387;48.112;8.616;2023-04-03T16:01:43;3.83;;;2.30;;
27744;SDS011;61387;48.112;8.616;2023-04-03T16:04:09;4.50;;;2.60;;